Apple Valley, Idaho
Current Conditions -  °F | °C
As of 3:53 AM on Sunday 23 Nov 2014 (Local Time) from KONO Reporting Station
Clear Clear  
Wind Chill: 24°   Ceiling: Unl
Heat Index: 29°   Visibility: 10mi
Dew Point: 23°   Wind: 5mph
Humidity: 78%   Direction: 190°S
Pressure: 30.24"   Gusts: NA
Location:  43.8067°N, 116.922°W
Report Text: KONO 231053Z AUTO 19004KT 10SM CLR M02/M05 A3024 RMK AO2 SLP259 T10171050
Loading
Personal Weather Stations






























Interactive Weather Map New forecast layout! Learn more

10-Day Weather Forecast

Advertisements
Track Severe Weather on mobile